Time;durP1;ratioP1;P1;durP2;ratioP2;P2;SDS_P1;SDS_P2;PMS_P1;PMS_P2;Temp;Humidity;BMP_temperature;BMP_pressure;BME280_temperature;BME280_humidity;BME280_pressure;Samples;Min_cycle;Max_cycle;Signal;HPM_P1;HPM_P2
2022/03/10 00:02:20;;;;;;;28.42;14.48;;;0.90;99.90;;;;;;5074004;28;20051;-78
2022/03/10 00:04:46;;;;;;;27.80;14.38;;;0.80;99.90;;;;;;5074489;28;20078;-78
2022/03/10 00:07:11;;;;;;;23.70;13.00;;;1.10;99.90;;;;;;5074196;28;20036;-79
2022/03/10 00:09:37;;;;;;;27.15;14.57;;;1.20;99.90;;;;;;5073966;28;20017;-78
2022/03/10 00:12:03;;;;;;;25.92;13.50;;;1.10;99.90;;;;;;5060335;28;20029;-78
2022/03/10 00:14:29;;;;;;;26.05;14.52;;;1.00;99.90;;;;;;5054464;28;20029;-78
2022/03/10 00:16:55;;;;;;;26.50;13.80;;;0.80;99.90;;;;;;5053955;28;20059;-79
2022/03/10 00:19:21;;;;;;;26.52;14.65;;;0.80;99.90;;;;;;5054008;28;20022;-78
2022/03/10 00:21:48;;;;;;;27.10;13.60;;;1.10;99.90;;;;;;5054175;28;20028;-78
2022/03/10 00:24:14;;;;;;;24.63;13.95;;;0.90;99.90;;;;;;5052959;28;20025;-78
2022/03/10 00:26:41;;;;;;;26.73;14.05;;;1.00;99.90;;;;;;5054302;28;20013;-78
2022/03/10 00:29:06;;;;;;;30.48;15.10;;;1.10;99.90;;;;;;5053930;28;20465;-79
2022/03/10 00:31:32;;;;;;;27.83;13.65;;;1.10;99.90;;;;;;5055673;28;20029;-79
2022/03/10 00:33:58;;;;;;;26.98;13.80;;;0.90;99.90;;;;;;5056963;28;20048;-78
2022/03/10 00:36:24;;;;;;;24.25;13.77;;;1.20;99.90;;;;;;5057533;28;20013;-78
2022/03/10 00:38:50;;;;;;;26.83;13.10;;;1.10;99.90;;;;;;5057317;28;20027;-78
2022/03/10 00:41:16;;;;;;;24.80;13.02;;;1.00;99.90;;;;;;5072681;28;20040;-78
2022/03/10 00:43:42;;;;;;;27.38;13.38;;;1.10;99.90;;;;;;5077153;28;20027;-78
2022/03/10 00:46:07;;;;;;;25.35;13.63;;;0.90;99.90;;;;;;5076682;28;20427;-79
2022/03/10 00:48:33;;;;;;;25.83;13.75;;;0.90;99.90;;;;;;5077610;28;20025;-78
2022/03/10 00:50:59;;;;;;;27.15;13.45;;;0.80;99.90;;;;;;5076321;28;20111;-78
2022/03/10 00:53:25;;;;;;;27.40;14.07;;;0.80;99.90;;;;;;5077147;28;20455;-78
2022/03/10 00:55:50;;;;;;;24.75;13.13;;;0.90;99.90;;;;;;5056878;28;20036;-78
2022/03/10 00:58:16;;;;;;;24.90;13.30;;;0.90;99.90;;;;;;5056984;28;20088;-78
2022/03/10 01:00:42;;;;;;;26.52;14.18;;;1.00;99.90;;;;;;5074693;28;20029;-78
2022/03/10 01:03:07;;;;;;;25.05;12.02;;;0.90;99.90;;;;;;5076814;28;20048;-79
2022/03/10 01:05:33;;;;;;;27.50;13.18;;;0.70;99.90;;;;;;5076941;28;20379;-78
2022/03/10 01:07:59;;;;;;;23.65;12.90;;;0.60;99.90;;;;;;5076845;28;20103;-78
2022/03/10 01:10:25;;;;;;;26.50;13.10;;;0.60;99.90;;;;;;5076901;28;20021;-78
2022/03/10 01:12:52;;;;;;;23.20;12.70;;;0.40;99.90;;;;;;5075920;28;20035;-78
2022/03/10 01:15:20;;;;;;;25.02;13.43;;;0.70;99.90;;;;;;5077087;28;20358;-78
2022/03/10 01:17:46;;;;;;;25.92;13.27;;;0.70;99.90;;;;;;5076556;28;20126;-79
2022/03/10 01:20:12;;;;;;;22.05;11.98;;;0.60;99.90;;;;;;5076689;28;20099;-78
2022/03/10 01:22:38;;;;;;;25.25;12.48;;;0.40;99.90;;;;;;5077190;28;20036;-78
2022/03/10 01:25:04;;;;;;;24.05;12.10;;;0.50;99.90;;;;;;5076781;28;20031;-78
2022/03/10 01:27:30;;;;;;;23.83;12.90;;;0.50;99.90;;;;;;5075336;28;20051;-78
2022/03/10 01:29:55;;;;;;;22.85;12.32;;;0.40;99.90;;;;;;5076261;28;20052;-78
2022/03/10 01:32:27;;;;;;;22.58;12.38;;;0.30;99.90;;;;;;5075967;28;20028;-79
2022/03/10 01:34:53;;;;;;;23.48;11.98;;;0.30;99.90;;;;;;5076110;28;20103;-78
2022/03/10 01:37:19;;;;;;;24.27;12.13;;;0.50;99.90;;;;;;5064611;28;20116;-78
2022/03/10 01:39:46;;;;;;;24.45;11.95;;;0.40;99.90;;;;;;5056202;28;20025;-78
2022/03/10 01:42:11;;;;;;;24.35;12.68;;;0.30;99.90;;;;;;5055796;28;20036;-78
2022/03/10 01:44:37;;;;;;;22.77;11.75;;;0.40;99.90;;;;;;5056343;28;20385;-78
2022/03/10 01:47:05;;;;;;;22.63;12.27;;;0.40;99.90;;;;;;5072299;28;20028;-78
2022/03/10 01:49:32;;;;;;;24.30;12.65;;;0.30;99.90;;;;;;5076601;28;20021;-78
2022/03/10 01:51:59;;;;;;;24.63;12.25;;;0.00;99.90;;;;;;5070134;28;20384;-78
2022/03/10 01:54:24;;;;;;;22.48;12.20;;;0.00;99.90;;;;;;5065848;28;20036;-78
2022/03/10 01:56:51;;;;;;;22.20;11.30;;;-0.20;99.90;;;;;;5074687;28;20090;-78
2022/03/10 01:59:18;;;;;;;23.33;11.95;;;-0.10;99.90;;;;;;5075894;28;20115;-78
2022/03/10 02:01:44;;;;;;;22.67;12.23;;;-0.10;99.90;;;;;;5075994;28;20025;-78
2022/03/10 02:04:10;;;;;;;25.45;12.57;;;0.00;99.90;;;;;;5075753;28;20074;-78
2022/03/10 02:06:36;;;;;;;25.80;13.65;;;0.00;99.90;;;;;;5075928;28;20031;-78
2022/03/10 02:11:50;;;;;;;21.90;11.73;;;-0.10;99.90;;;;;;5036364;28;20040;-78
2022/03/10 02:19:45;;;;;;;26.67;12.35;;;0.10;99.90;;;;;;5014994;28;20079;-86
2022/03/10 02:22:13;;;;;;;22.98;12.23;;;0.20;99.90;;;;;;5028204;28;20022;-86
2022/03/10 02:24:40;;;;;;;21.42;12.57;;;0.30;99.90;;;;;;5034830;28;20037;-87
2022/03/10 02:27:30;;;;;;;25.80;12.52;;;0.30;99.90;;;;;;5030742;28;21041;-87
2022/03/10 02:29:59;;;;;;;24.85;12.30;;;0.50;99.90;;;;;;5014248;28;20072;-87
2022/03/10 02:32:25;;;;;;;21.23;12.32;;;0.30;99.90;;;;;;5013668;28;20030;-87
2022/03/10 02:34:51;;;;;;;23.42;12.32;;;0.40;99.90;;;;;;5013821;28;20018;-87
2022/03/10 02:37:17;;;;;;;25.92;12.95;;;0.50;99.90;;;;;;5014971;28;20033;-87
2022/03/10 02:39:44;;;;;;;26.67;12.52;;;0.50;99.90;;;;;;5013517;28;20390;-86
2022/03/10 02:42:11;;;;;;;24.33;12.43;;;0.40;99.90;;;;;;5013354;28;20076;-86
2022/03/10 02:44:43;;;;;;;26.02;12.82;;;0.40;99.90;;;;;;5014709;28;20044;-86
2022/03/10 02:47:09;;;;;;;24.13;12.85;;;0.30;99.90;;;;;;5014602;28;20120;-86
2022/03/10 02:49:37;;;;;;;27.38;12.27;;;0.40;99.90;;;;;;5013267;28;20058;-86
2022/03/10 02:52:03;;;;;;;22.67;12.05;;;0.20;99.90;;;;;;5013075;28;20045;-86
2022/03/10 02:54:29;;;;;;;23.17;11.93;;;0.50;99.90;;;;;;5013289;28;20482;-86
2022/03/10 02:56:55;;;;;;;26.60;12.95;;;0.40;99.90;;;;;;5014538;28;20037;-86
2022/03/10 02:59:21;;;;;;;22.70;12.13;;;0.40;99.90;;;;;;5013731;28;20038;-86
2022/03/10 03:01:46;;;;;;;22.25;12.38;;;0.20;99.90;;;;;;5034556;28;20026;-86
2022/03/10 03:04:12;;;;;;;23.42;12.07;;;0.10;99.90;;;;;;5034036;28;20100;-87
2022/03/10 03:06:37;;;;;;;24.52;13.10;;;0.20;99.90;;;;;;5034226;28;20068;-87
2022/03/10 03:09:03;;;;;;;27.65;13.73;;;0.20;99.90;;;;;;5028727;28;20362;-86
2022/03/10 03:11:28;;;;;;;22.13;12.40;;;0.00;99.90;;;;;;5013049;28;20018;-86
2022/03/10 03:13:56;;;;;;;23.08;12.95;;;-0.10;99.90;;;;;;5013861;28;20495;-86
2022/03/10 03:16:23;;;;;;;23.23;12.75;;;-0.20;99.90;;;;;;5012558;28;20029;-84
2022/03/10 03:18:49;;;;;;;22.42;12.55;;;-0.10;99.90;;;;;;5012634;28;20030;-85
2022/03/10 03:21:14;;;;;;;23.42;11.90;;;-0.20;99.90;;;;;;5012480;28;20026;-85
2022/03/10 03:23:40;;;;;;;22.75;12.98;;;-0.30;99.90;;;;;;5013889;28;20022;-85
2022/03/10 03:26:06;;;;;;;22.70;12.30;;;-0.40;99.90;;;;;;5014398;28;20030;-85
2022/03/10 03:28:47;;;;;;;26.38;12.30;;;-0.40;99.90;;;;;;5012638;28;20177;-85
2022/03/10 03:31:12;;;;;;;24.23;12.35;;;-0.20;99.90;;;;;;5013481;28;20030;-86
2022/03/10 03:33:38;;;;;;;22.77;12.77;;;-0.40;99.90;;;;;;5013194;28;20029;-85
2022/03/10 03:36:28;;;;;;;23.70;12.32;;;-0.50;99.90;;;;;;5012665;28;20125;-85
2022/03/10 03:38:54;;;;;;;27.43;12.90;;;-0.80;99.90;;;;;;5012258;28;20022;-84
2022/03/10 03:41:19;;;;;;;27.92;13.38;;;-0.80;99.90;;;;;;5018386;28;20024;-85
2022/03/10 03:43:45;;;;;;;27.83;12.15;;;-0.50;99.90;;;;;;5032008;28;20021;-85
2022/03/10 03:46:10;;;;;;;26.92;12.98;;;-0.40;99.90;;;;;;5032183;28;20021;-85
2022/03/10 03:52:32;;;;;;;26.25;12.60;;;-0.50;99.90;;;;;;5033165;28;20449;-85
2022/03/10 03:54:57;;;;;;;25.15;13.25;;;-0.60;99.90;;;;;;5033593;28;20037;-85
2022/03/10 04:00:51;;;;;;;24.02;12.65;;;-0.70;99.90;;;;;;5033901;28;20043;-85
2022/03/10 04:03:17;;;;;;;24.13;12.45;;;-0.80;99.90;;;;;;5031918;28;20480;-85
2022/03/10 04:05:42;;;;;;;23.23;12.30;;;-0.80;99.90;;;;;;5032662;28;20021;-85
2022/03/10 04:08:08;;;;;;;21.48;11.63;;;-0.90;99.90;;;;;;5037152;28;20037;-85
2022/03/10 04:10:36;;;;;;;22.52;12.30;;;-0.90;99.90;;;;;;5035739;28;20108;-85
2022/03/10 04:13:01;;;;;;;28.15;12.57;;;-1.00;99.90;;;;;;5036946;28;20042;-85
2022/03/10 04:15:27;;;;;;;24.95;12.05;;;-1.00;99.90;;;;;;5036992;28;20104;-85
2022/03/10 04:18:20;;;;;;;25.83;12.85;;;-1.10;99.90;;;;;;5035755;28;20075;-84
2022/03/10 04:20:47;;;;;;;25.33;12.75;;;-1.10;1.00;;;;;;5037032;28;20481;-84
2022/03/10 04:23:14;;;;;;;24.40;13.05;;;-1.20;99.90;;;;;;5035551;28;20021;-85
2022/03/10 04:25:40;;;;;;;25.83;12.63;;;-1.20;1.00;;;;;;5037185;28;20025;-85
2022/03/10 04:28:06;;;;;;;21.75;11.98;;;-0.80;99.90;;;;;;5039797;28;20658;-85
2022/03/10 04:30:34;;;;;;;27.75;13.02;;;-0.60;99.90;;;;;;5036681;28;20121;-85
2022/03/10 04:33:01;;;;;;;26.17;13.00;;;-0.70;99.90;;;;;;5036497;28;20022;-86
2022/03/10 04:35:28;;;;;;;25.60;12.48;;;-0.50;99.90;;;;;;5035657;28;20018;-85
2022/03/10 04:37:54;;;;;;;26.73;12.80;;;-0.40;99.90;;;;;;5037340;28;20031;-85
2022/03/10 04:40:20;;;;;;;26.02;12.85;;;-0.20;99.90;;;;;;5036057;28;20025;-84
2022/03/10 04:42:47;;;;;;;21.95;12.70;;;-0.20;99.90;;;;;;5037388;28;20071;-85
2022/03/10 04:45:13;;;;;;;25.55;13.15;;;-0.30;99.90;;;;;;5037067;28;20030;-85
2022/03/10 04:47:41;;;;;;;29.20;14.32;;;-0.30;99.90;;;;;;5037745;28;20028;-86
2022/03/10 04:50:08;;;;;;;28.15;13.68;;;0.00;99.90;;;;;;5036967;28;20043;-86
2022/03/10 04:52:34;;;;;;;24.85;12.95;;;-0.10;99.90;;;;;;5038234;28;20021;-87
2022/03/10 04:55:00;;;;;;;26.10;12.52;;;0.00;99.90;;;;;;5037858;28;20022;-86
2022/03/10 04:57:26;;;;;;;24.95;12.48;;;-0.20;99.90;;;;;;5035069;28;20025;-86
2022/03/10 04:59:51;;;;;;;26.65;14.07;;;-0.20;99.90;;;;;;5035082;28;20025;-86
2022/03/10 05:02:17;;;;;;;25.10;13.27;;;0.10;99.90;;;;;;5037548;28;20017;-86
2022/03/10 05:04:43;;;;;;;28.75;13.70;;;0.00;99.90;;;;;;5035189;28;20113;-86
2022/03/10 05:07:08;;;;;;;29.27;14.60;;;0.00;99.90;;;;;;5028475;28;20026;-85
2022/03/10 05:09:58;;;;;;;25.52;13.13;;;0.00;99.90;;;;;;5034079;28;20528;-86
2022/03/10 05:15:45;;;;;;;23.40;12.55;;;-0.40;99.90;;;;;;5005673;28;20056;-87
2022/03/10 05:21:20;;;;;;;35.22;13.35;;;-0.60;99.90;;;;;;5016870;28;20042;-86
2022/03/10 05:23:46;;;;;;;31.85;13.80;;;-0.50;99.90;;;;;;5032471;28;20120;-86
2022/03/10 05:26:11;;;;;;;25.48;13.05;;;-0.30;99.90;;;;;;5016524;28;20470;-86
2022/03/10 05:28:37;;;;;;;25.33;13.30;;;-0.60;99.90;;;;;;5050637;28;20034;-87
2022/03/10 05:31:02;;;;;;;27.80;14.20;;;-0.80;1.00;;;;;;5035353;28;20064;-87
2022/03/10 05:33:28;;;;;;;27.33;14.10;;;-0.40;99.90;;;;;;5023872;28;20112;-87
2022/03/10 05:35:53;;;;;;;28.77;14.35;;;-0.60;99.90;;;;;;5014942;28;20018;-87
2022/03/10 05:38:19;;;;;;;28.27;13.43;;;-0.60;99.90;;;;;;5023255;28;20116;-87
2022/03/10 05:40:44;;;;;;;28.45;13.63;;;-0.30;99.90;;;;;;5022714;28;20114;-86
2022/03/10 05:43:10;;;;;;;25.05;13.65;;;-0.30;99.90;;;;;;5026124;28;20093;-86
2022/03/10 05:45:35;;;;;;;25.52;13.93;;;-0.30;99.90;;;;;;5035560;28;20026;-87
2022/03/10 05:48:01;;;;;;;27.75;13.88;;;-0.30;99.90;;;;;;5016727;28;20033;-87
2022/03/10 05:50:27;;;;;;;27.63;13.75;;;-0.40;99.90;;;;;;5031170;28;20121;-86
2022/03/10 05:52:54;;;;;;;30.23;14.15;;;-0.40;99.90;;;;;;5034183;28;20047;-86
2022/03/10 05:55:22;;;;;;;32.05;14.30;;;-0.40;99.90;;;;;;5034177;28;20109;-85
2022/03/10 05:57:48;;;;;;;25.42;13.43;;;-0.40;99.90;;;;;;5034222;28;20021;-84
2022/03/10 06:00:15;;;;;;;27.80;13.77;;;-0.60;99.90;;;;;;5037733;28;20083;-84
2022/03/10 06:02:41;;;;;;;25.67;13.80;;;-0.70;99.90;;;;;;5034255;28;20025;-84
2022/03/10 06:05:07;;;;;;;29.00;14.00;;;-0.60;1.00;;;;;;5018954;28;20037;-84
2022/03/10 06:07:33;;;;;;;29.00;13.90;;;-0.70;1.00;;;;;;5015413;28;20030;-83
2022/03/10 06:09:58;;;;;;;27.75;14.07;;;-0.60;1.00;;;;;;5014917;28;20033;-83
2022/03/10 06:12:27;;;;;;;30.63;14.75;;;-0.40;99.90;;;;;;5019669;28;20385;-83
2022/03/10 06:14:58;;;;;;;27.52;12.95;;;-0.50;99.90;;;;;;5035153;28;20041;-84
2022/03/10 06:17:24;;;;;;;28.77;14.05;;;-0.50;99.90;;;;;;5034869;28;20524;-83
2022/03/10 06:19:50;;;;;;;25.02;13.40;;;-0.40;99.90;;;;;;5024882;28;20104;-84
2022/03/10 06:22:21;;;;;;;25.60;13.85;;;-0.40;99.90;;;;;;5026918;28;20025;-84
2022/03/10 06:24:47;;;;;;;27.95;14.23;;;-0.30;99.90;;;;;;5034066;28;20485;-84
2022/03/10 06:27:13;;;;;;;26.63;13.23;;;-0.20;99.90;;;;;;5015571;28;20033;-84
2022/03/10 06:29:40;;;;;;;29.60;14.57;;;0.10;99.90;;;;;;5018631;28;20104;-84
2022/03/10 06:32:06;;;;;;;30.65;14.05;;;0.00;99.90;;;;;;5033231;28;20021;-84
2022/03/10 06:34:32;;;;;;;29.08;14.00;;;0.10;99.90;;;;;;5033274;28;20022;-84
2022/03/10 06:36:57;;;;;;;27.85;13.35;;;0.10;99.90;;;;;;5032829;28;20025;-84
2022/03/10 06:39:23;;;;;;;25.52;13.35;;;0.20;99.90;;;;;;5030888;28;20138;-84
2022/03/10 06:41:49;;;;;;;29.88;14.00;;;0.30;99.90;;;;;;5027201;28;20040;-84
2022/03/10 06:44:15;;;;;;;32.03;14.38;;;0.20;99.90;;;;;;5032044;28;20033;-84
2022/03/10 06:46:40;;;;;;;29.00;13.13;;;0.20;99.90;;;;;;5020464;28;20398;-84
2022/03/10 06:49:06;;;;;;;27.27;13.88;;;0.30;99.90;;;;;;5022378;28;20389;-84
2022/03/10 06:51:31;;;;;;;25.38;13.02;;;0.20;99.90;;;;;;5021082;28;20478;-84
2022/03/10 06:53:58;;;;;;;26.60;13.98;;;0.20;99.90;;;;;;5022145;28;20026;-84
2022/03/10 06:56:23;;;;;;;28.52;14.50;;;0.30;99.90;;;;;;5027948;28;20034;-84
2022/03/10 06:58:49;;;;;;;29.33;14.45;;;0.30;99.90;;;;;;5032461;28;20053;-84
2022/03/10 07:01:14;;;;;;;24.42;12.32;;;0.30;99.90;;;;;;5018014;28;20026;-84
2022/03/10 07:03:40;;;;;;;29.02;13.38;;;0.60;99.90;;;;;;5033800;28;20539;-84
2022/03/10 07:06:06;;;;;;;29.08;13.77;;;0.80;99.90;;;;;;5026589;28;20036;-85
2022/03/10 07:08:32;;;;;;;25.88;13.80;;;1.00;99.90;;;;;;5031157;28;20045;-86
2022/03/10 07:10:57;;;;;;;24.30;13.63;;;1.00;99.90;;;;;;5020304;28;20072;-85
2022/03/10 07:13:23;;;;;;;26.73;12.82;;;1.20;99.90;;;;;;5025700;28;20072;-84
2022/03/10 07:15:48;;;;;;;24.80;12.88;;;1.40;99.90;;;;;;5037177;28;20047;-84
2022/03/10 07:18:14;;;;;;;28.50;13.23;;;1.50;99.90;;;;;;5027186;28;20030;-84
2022/03/10 07:20:40;;;;;;;29.27;14.15;;;4.70;99.90;;;;;;5034357;28;20137;-84
2022/03/10 07:23:05;;;;;;;25.10;13.35;;;8.40;99.90;;;;;;5028424;28;20025;-84
2022/03/10 07:25:31;;;;;;;24.25;12.80;;;10.50;99.90;;;;;;5027555;28;20022;-84
2022/03/10 07:27:56;;;;;;;26.95;12.95;;;11.40;99.90;;;;;;5026160;28;20032;-84
2022/03/10 07:30:23;;;;;;;25.58;12.88;;;11.90;99.90;;;;;;5039268;28;20026;-84
2022/03/10 07:32:51;;;;;;;24.15;12.60;;;13.90;99.90;;;;;;5037498;28;20029;-85
2022/03/10 07:35:17;;;;;;;24.85;12.90;;;14.50;99.90;;;;;;5060186;28;20045;-84
2022/03/10 07:37:44;;;;;;;21.98;11.50;;;16.70;99.90;;;;;;5037055;28;20021;-84
2022/03/10 07:40:11;;;;;;;27.15;13.40;;;16.00;99.90;;;;;;5034893;28;20079;-84
2022/03/10 07:42:37;;;;;;;26.25;14.18;;;16.60;99.90;;;;;;5019598;28;20037;-84
2022/03/10 07:45:06;;;;;;;23.30;13.57;;;16.50;99.90;;;;;;5042987;28;20033;-84
2022/03/10 07:47:33;;;;;;;23.80;13.18;;;15.30;99.90;;;;;;5048982;28;20041;-84
2022/03/10 07:50:04;;;;;;;24.90;13.98;;;16.80;99.90;;;;;;5043044;28;20034;-85
2022/03/10 07:53:02;;;;;;;22.38;13.13;;;18.00;99.90;;;;;;5042432;28;20396;-85
2022/03/10 07:55:41;;;;;;;26.30;13.82;;;17.70;99.90;;;;;;5041022;28;20021;-85
2022/03/10 07:58:07;;;;;;;23.95;14.10;;;18.70;99.90;;;;;;5035543;28;20022;-85
2022/03/10 08:00:33;;;;;;;26.10;13.95;;;20.20;99.90;;;;;;5036927;28;20037;-85
2022/03/10 08:02:59;;;;;;;22.67;13.35;;;21.10;99.90;;;;;;5048916;28;20036;-85
2022/03/10 08:05:25;;;;;;;25.25;13.23;;;19.70;99.90;;;;;;5035189;28;20077;-85
2022/03/10 08:07:52;;;;;;;23.70;13.65;;;19.40;99.90;;;;;;5040595;28;20047;-85
2022/03/10 08:10:18;;;;;;;22.35;13.98;;;20.10;99.90;;;;;;5020005;28;20133;-85
2022/03/10 08:12:43;;;;;;;23.88;13.80;;;20.00;99.90;;;;;;5048421;28;20029;-85
2022/03/10 08:15:15;;;;;;;25.67;15.25;;;19.60;99.90;;;;;;5041302;28;20456;-85
2022/03/10 08:17:41;;;;;;;26.98;16.02;;;21.20;99.90;;;;;;5036221;28;20034;-85
2022/03/10 08:20:07;;;;;;;24.85;14.32;;;21.40;99.90;;;;;;5038021;28;20025;-86
2022/03/10 08:22:32;;;;;;;24.98;15.00;;;21.60;99.90;;;;;;5032862;28;20086;-87
2022/03/10 08:24:58;;;;;;;28.30;16.23;;;23.50;99.90;;;;;;5043785;28;20032;-86
2022/03/10 08:27:23;;;;;;;27.88;15.38;;;24.00;99.90;;;;;;5036607;28;20077;-86
2022/03/10 08:29:49;;;;;;;25.27;14.95;;;25.80;99.90;;;;;;5029314;28;20041;-87
2022/03/10 08:32:15;;;;;;;23.55;15.20;;;25.70;99.90;;;;;;5031890;28;20014;-87
2022/03/10 08:34:40;;;;;;;26.63;16.17;;;25.50;99.90;;;;;;5043027;28;20514;-86
2022/03/10 08:37:07;;;;;;;27.77;16.08;;;25.10;99.90;;;;;;5045822;28;20045;-86
2022/03/10 08:39:33;;;;;;;26.17;16.00;;;25.40;99.90;;;;;;5039408;28;20098;-86
2022/03/10 08:41:59;;;;;;;27.17;16.92;;;23.50;99.90;;;;;;5046882;28;20048;-85
2022/03/10 08:44:26;;;;;;;30.13;17.98;;;23.80;99.90;;;;;;5043532;28;20018;-86
2022/03/10 08:46:51;;;;;;;26.13;17.23;;;23.50;99.90;;;;;;5049487;28;20025;-86
2022/03/10 08:49:17;;;;;;;27.00;16.45;;;23.60;99.90;;;;;;5052410;28;20009;-86
2022/03/10 08:51:50;;;;;;;28.52;17.65;;;22.80;99.90;;;;;;5045816;28;20052;-86
2022/03/10 08:54:15;;;;;;;29.92;19.17;;;22.30;99.90;;;;;;5063858;28;20034;-85
2022/03/10 08:56:44;;;;;;;29.15;18.65;;;23.90;99.90;;;;;;5056689;28;20025;-85
2022/03/10 08:59:09;;;;;;;26.85;18.00;;;25.60;99.90;;;;;;5065118;28;20056;-86
2022/03/10 09:01:35;;;;;;;30.42;18.95;;;25.80;99.90;;;;;;5053139;28;20037;-86
2022/03/10 09:04:01;;;;;;;32.40;19.90;;;26.70;99.90;;;;;;5055761;28;20013;-86
2022/03/10 09:06:29;;;;;;;31.85;18.63;;;29.20;99.90;;;;;;5055926;28;20032;-85
2022/03/10 09:08:55;;;;;;;31.95;19.67;;;27.70;99.90;;;;;;5048531;28;20044;-86
2022/03/10 09:11:22;;;;;;;30.38;19.77;;;26.50;99.90;;;;;;5059336;28;20033;-86
2022/03/10 09:13:48;;;;;;;33.78;19.98;;;27.40;99.90;;;;;;5054106;28;20034;-86
2022/03/10 09:16:18;;;;;;;35.30;19.67;;;26.90;99.90;;;;;;5045751;28;20054;-86
2022/03/10 09:18:46;;;;;;;32.63;21.65;;;25.90;99.90;;;;;;5050908;28;20025;-85
2022/03/10 09:21:13;;;;;;;35.30;19.67;;;27.80;99.90;;;;;;5045517;28;20460;-86
2022/03/10 09:23:42;;;;;;;32.15;19.85;;;25.80;99.90;;;;;;5055885;28;20033;-87
2022/03/10 09:26:07;;;;;;;32.03;18.15;;;28.20;99.90;;;;;;5049763;28;20029;-86
2022/03/10 09:28:33;;;;;;;27.90;18.17;;;27.80;99.90;;;;;;5049533;28;20076;-86
2022/03/10 09:30:59;;;;;;;28.67;18.45;;;26.80;99.90;;;;;;5046182;28;20045;-86
2022/03/10 09:33:25;;;;;;;32.55;19.65;;;25.50;99.90;;;;;;5055071;28;20013;-86
2022/03/10 09:35:51;;;;;;;25.48;16.85;;;27.10;99.90;;;;;;5047825;28;20031;-86
2022/03/10 09:38:18;;;;;;;25.67;17.13;;;27.20;99.90;;;;;;5040103;28;20116;-85
2022/03/10 09:40:54;;;;;;;26.02;17.35;;;27.60;99.90;;;;;;5043978;28;20030;-86
2022/03/10 09:43:27;;;;;;;28.65;17.73;;;25.60;99.90;;;;;;5052709;28;20072;-86
2022/03/10 09:45:52;;;;;;;26.67;17.33;;;26.70;99.90;;;;;;5035548;28;20053;-87
2022/03/10 09:48:25;;;;;;;27.65;16.40;;;27.70;99.90;;;;;;5045052;28;20060;-86
2022/03/10 09:50:51;;;;;;;27.50;17.80;;;28.70;99.90;;;;;;5051690;28;20056;-86
2022/03/10 09:53:19;;;;;;;30.73;18.60;;;26.40;99.90;;;;;;5047195;28;20022;-86
2022/03/10 09:55:44;;;;;;;29.13;18.58;;;26.80;99.90;;;;;;5047185;28;20052;-85
2022/03/10 09:58:10;;;;;;;28.52;19.30;;;25.30;99.90;;;;;;5054678;28;20033;-86
2022/03/10 10:00:36;;;;;;;30.13;18.70;;;26.30;99.90;;;;;;5053746;28;20025;-86
2022/03/10 10:03:01;;;;;;;27.90;17.92;;;28.70;99.90;;;;;;5026638;28;20028;-87
2022/03/10 10:05:29;;;;;;;28.73;18.33;;;28.70;99.90;;;;;;5044307;28;20049;-86
2022/03/10 10:08:04;;;;;;;34.20;19.08;;;24.20;99.90;;;;;;5053297;28;20037;-86
2022/03/10 10:10:31;;;;;;;27.23;17.13;;;28.00;99.90;;;;;;5044439;28;20021;-86
2022/03/10 10:12:57;;;;;;;30.25;17.23;;;27.70;99.90;;;;;;5047541;28;20029;-86
2022/03/10 10:15:23;;;;;;;30.48;19.65;;;28.20;99.90;;;;;;5042445;28;20051;-85
2022/03/10 10:17:59;;;;;;;32.88;17.92;;;26.50;99.90;;;;;;5043217;28;20026;-86
2022/03/10 10:20:43;;;;;;;31.17;18.80;;;24.70;99.90;;;;;;5046459;28;20045;-86
2022/03/10 10:23:23;;;;;;;30.98;19.75;;;25.50;99.90;;;;;;5047244;28;20057;-86
2022/03/10 10:25:57;;;;;;;33.67;19.70;;;25.40;99.90;;;;;;5045567;28;20061;-86
2022/03/10 10:28:31;;;;;;;34.95;20.88;;;25.50;99.90;;;;;;5039297;28;20097;-87
2022/03/10 10:31:04;;;;;;;33.25;20.30;;;26.50;99.90;;;;;;5039180;28;20029;-87
2022/03/10 10:33:32;;;;;;;36.08;20.80;;;27.10;99.90;;;;;;5037117;28;20377;-87
2022/03/10 10:36:24;;;;;;;33.85;19.60;;;23.70;99.90;;;;;;5046005;28;20115;-86
2022/03/10 10:38:51;;;;;;;30.40;18.38;;;22.90;99.90;;;;;;5041404;28;20034;-86
2022/03/10 10:41:31;;;;;;;30.02;17.88;;;22.50;99.90;;;;;;5047248;28;20516;-86
2022/03/10 10:44:20;;;;;;;31.83;17.63;;;20.40;99.90;;;;;;5046504;28;20052;-87
2022/03/10 10:46:55;;;;;;;30.52;17.63;;;17.70;99.90;;;;;;5038667;28;20037;-87
2022/03/10 10:49:25;;;;;;;27.23;16.73;;;17.20;99.90;;;;;;5046785;28;20033;-86
2022/03/10 10:51:51;;;;;;;;;;;17.30;99.90;;;;;;5046203;28;20014;-87
2022/03/10 10:54:20;;;;;;;27.55;16.75;;;16.00;99.90;;;;;;5046492;28;19909;-86
2022/03/10 10:56:58;;;;;;;27.77;16.75;;;16.50;99.90;;;;;;5051818;28;20017;-86
2022/03/10 10:59:38;;;;;;;26.88;15.43;;;15.10;99.90;;;;;;5039470;28;20124;-87
2022/03/10 11:02:09;;;;;;;24.10;15.75;;;16.10;99.90;;;;;;5045103;28;20071;-87
2022/03/10 11:04:39;;;;;;;28.75;17.38;;;17.20;99.90;;;;;;5029749;28;20049;-88
2022/03/10 11:07:06;;;;;;;26.85;16.85;;;16.40;99.90;;;;;;5036181;28;20041;-88
2022/03/10 11:09:32;;;;;;;26.38;16.33;;;15.20;99.90;;;;;;5040348;28;20040;-87
2022/03/10 11:11:58;;;;;;;26.27;17.17;;;14.90;99.90;;;;;;5049743;28;20029;-87
2022/03/10 11:14:24;;;;;;;27.67;16.42;;;15.10;99.90;;;;;;5026004;28;20034;-87
2022/03/10 11:16:50;;;;;;;30.67;17.85;;;15.10;99.90;;;;;;5042895;28;20049;-87
2022/03/10 11:19:20;;;;;;;28.85;17.65;;;15.80;99.90;;;;;;5041605;28;20057;-87
2022/03/10 11:21:49;;;;;;;;;;;15.80;99.90;;;;;;5047572;28;20067;-87
2022/03/10 11:24:31;;;;;;;26.27;16.55;;;15.40;99.90;;;;;;5034177;28;20214;-87
2022/03/10 11:27:12;;;;;;;26.05;16.20;;;16.30;99.90;;;;;;5042426;28;20118;-86
2022/03/10 11:29:39;;;;;;;28.25;16.83;;;16.30;99.90;;;;;;5031192;28;20033;-86
2022/03/10 11:32:08;;;;;;;28.77;17.90;;;16.80;99.90;;;;;;5022210;28;20048;-87
2022/03/10 11:34:52;;;;;;;28.45;17.38;;;15.80;99.90;;;;;;5050155;28;20031;-87
2022/03/10 11:37:48;;;;;;;31.90;18.33;;;16.00;99.90;;;;;;5044680;28;20113;-87
2022/03/10 11:40:17;;;;;;;28.23;17.30;;;16.00;99.90;;;;;;5041091;28;20022;-86
2022/03/10 11:42:43;;;;;;;25.77;16.40;;;15.90;99.90;;;;;;5041402;28;20177;-86
2022/03/10 11:45:19;;;;;;;26.48;15.02;;;16.30;99.90;;;;;;5041775;28;20265;-88
2022/03/10 11:47:46;;;;;;;29.27;17.05;;;16.20;99.90;;;;;;5049466;28;20033;-86
2022/03/10 11:50:22;;;;;;;31.00;16.95;;;15.90;99.90;;;;;;5045058;28;20018;-87
2022/03/10 11:53:01;;;;;;;28.48;16.85;;;15.50;99.90;;;;;;5047563;28;20030;-87
2022/03/10 11:55:38;;;;;;;28.92;17.75;;;15.70;99.90;;;;;;5051721;28;20053;-87
2022/03/10 11:58:05;;;;;;;30.02;16.58;;;16.00;99.90;;;;;;5050120;28;20030;-87
2022/03/10 12:00:52;;;;;;;29.30;17.60;;;16.80;99.90;;;;;;5038398;28;20030;-87
2022/03/10 12:03:27;;;;;;;32.83;17.80;;;16.20;99.90;;;;;;5036177;28;20033;-87
2022/03/10 12:06:01;;;;;;;27.35;16.17;;;15.90;99.90;;;;;;5046001;28;20025;-86
2022/03/10 12:08:29;;;;;;;30.50;16.98;;;15.90;99.90;;;;;;5040211;28;20061;-87
2022/03/10 12:10:55;;;;;;;29.75;17.65;;;16.20;99.90;;;;;;5035812;28;20029;-87
2022/03/10 12:13:35;;;;;;;29.52;16.40;;;15.70;99.90;;;;;;5036352;28;20392;-87
2022/03/10 12:16:04;;;;;;;28.88;17.33;;;16.70;99.90;;;;;;5037449;28;20045;-87
2022/03/10 12:18:43;;;;;;;26.50;15.18;;;16.80;99.90;;;;;;5033165;28;20122;-87
2022/03/10 12:21:29;;;;;;;28.05;16.05;;;16.80;99.90;;;;;;5036250;28;20057;-87
2022/03/10 12:24:00;;;;;;;28.58;15.88;;;17.00;99.90;;;;;;5032383;28;20030;-87
2022/03/10 12:26:35;;;;;;;29.95;16.60;;;17.30;99.90;;;;;;5043425;28;20029;-88
2022/03/10 12:29:06;;;;;;;23.77;14.73;;;16.90;99.90;;;;;;5048904;28;20030;-88
2022/03/10 12:31:35;;;;;;;25.70;15.45;;;16.80;99.90;;;;;;5045944;28;20029;-88
2022/03/10 12:34:03;;;;;;;28.92;15.63;;;16.80;99.90;;;;;;5044737;28;20025;-87
2022/03/10 12:36:40;;;;;;;29.60;16.58;;;17.40;99.90;;;;;;5045097;28;20033;-87
2022/03/10 12:39:18;;;;;;;29.92;16.17;;;17.20;99.90;;;;;;5051703;28;20036;-87
2022/03/10 12:41:48;;;;;;;25.58;14.90;;;16.80;99.90;;;;;;5043774;28;20044;-88
2022/03/10 12:44:23;;;;;;;29.83;16.70;;;16.40;99.90;;;;;;5039238;28;20450;-88
2022/03/10 12:46:51;;;;;;;30.40;15.77;;;16.00;99.90;;;;;;5036280;28;20026;-87
2022/03/10 12:49:24;;;;;;;27.60;16.33;;;16.20;99.90;;;;;;5027136;28;20029;-87
2022/03/10 12:51:50;;;;;;;28.40;15.95;;;16.70;99.90;;;;;;5027741;28;20117;-87
2022/03/10 12:54:18;;;;;;;26.83;14.82;;;16.20;99.90;;;;;;5023658;28;20022;-86
2022/03/10 12:56:54;;;;;;;27.08;15.80;;;16.90;99.90;;;;;;5029322;28;20108;-85
2022/03/10 12:59:33;;;;;;;26.98;15.85;;;17.10;99.90;;;;;;5028770;28;20029;-85